• Join FlightAware (Why Join?)
  • Login
  • US Flag 
04:42PM EDT


 

Airport Tracker/Info


-or-


 

Live Flight TrackerFlight Track Log ✈ TAM8010 ✈ 01-May-2013 ✈ SBGR / GRU - SABE / AEP

Flight Track Log - Related Links

Times and Time Zones

All times are in EDT time to prevent confusion due to time zone crossing. See the TAM8010 flight status page for this flight to view local times or setup timezone preferences in your user account.

Time Position Orientation Groundspeed Altitude Reporting Facility
EDT Latitude Longitude Course Direction KTS MPH feet Rate Location/Type
11:09AM -23.4230 -46.4420 72° East 179 206 3,100  Level FlightAware
11:10AM -23.4300 -46.4090 103° East 169 194 4,400 1,740 Climbing FlightAware
11:10AM -23.4380 -46.4070 167° South 177 204 4,700 1,620 Climbing FlightAware
11:10AM -23.4600 -46.4210 210° Southwest 181 208 5,500 1,260 Climbing FlightAware
11:11AM -23.4770 -46.4440 231° Southwest 215 247 6,000 1,080 Climbing FlightAware
11:11AM -23.4950 -46.4720 235° Southwest 248 285 6,600 1,380 Climbing FlightAware
11:12AM -23.5150 -46.4990 231° Southwest 278 320 7,300 2,160 Climbing FlightAware
11:12AM -23.5400 -46.5330 231° Southwest 284 327 8,600 2,400 Climbing FlightAware
11:13AM -23.5570 -46.5570 232° Southwest 289 333 9,500 1,920 Climbing FlightAware
11:13AM -23.5910 -46.6030 231° Southwest 300 345 10,700 1,380 Climbing FlightAware
11:14AM -23.6330 -46.6590 231° Southwest 348 400 11,500 1,740 Climbing FlightAware
11:15AM -23.6840 -46.7080 221° Southwest 351 404 13,200 2,160 Climbing FlightAware
11:15AM -23.7370 -46.7600 222° Southwest 364 419 14,400 1,680 Climbing FlightAware
11:16AM -23.7890 -46.8090 221° Southwest 374 430 15,600 1,800 Climbing FlightAware
11:17AM -23.8450 -46.8640 222° Southwest 377 434 17,000 1,740 Climbing FlightAware
11:18AM -23.9020 -46.9190 221° Southwest 386 444 18,100 1,620 Climbing FlightAware
11:18AM -23.9560 -46.9710 221° Southwest 388 447 19,300 1,440 Climbing FlightAware
11:19AM -24.0140 -47.0280 222° Southwest 399 459 20,200 1,320 Climbing FlightAware
11:20AM -24.0710 -47.0830 221° Southwest 403 464 21,200 1,500 Climbing FlightAware
11:20AM -24.1320 -47.1430 222° Southwest 410 472 22,200 1,260 Climbing FlightAware
11:21AM -24.1880 -47.1960 221° Southwest 417 480 22,900 1,080 Climbing FlightAware
11:22AM -24.2520 -47.2600 222° Southwest 421 484 23,800 1,080 Climbing FlightAware
11:23AM -24.3190 -47.3240 221° Southwest 427 491 24,600 1,080 Climbing FlightAware
11:23AM -24.3710 -47.3750 222° Southwest 432 497 25,300 1,080 Climbing FlightAware
11:24AM -24.4450 -47.4480 222° Southwest 436 502 26,200 1,080 Climbing FlightAware
11:25AM -24.5040 -47.5060 222° Southwest 437 503 27,000 1,440 Climbing FlightAware
11:25AM -24.5590 -47.5600 222° Southwest 429 494 28,000 1,260 Climbing FlightAware
11:26AM -24.6180 -47.6180 222° Southwest 432 497 28,600 840 Climbing FlightAware
11:27AM -24.6920 -47.6910 222° Southwest 436 502 29,300 840 Climbing FlightAware
11:27AM -24.7620 -47.7600 222° Southwest 439 505 30,000 900 Climbing FlightAware
11:28AM -24.8160 -47.8130 222° Southwest 440 506 30,500 1,260 Climbing FlightAware
11:29AM -24.8810 -47.8770 222° Southwest 428 493 31,700 1,500 Climbing FlightAware
11:29AM -24.9390 -47.9350 222° Southwest 417 480 32,700 1,080 Climbing FlightAware
11:30AM -25.0000 -47.9960 222° Southwest 416 479 33,300 780 Climbing FlightAware
11:31AM -25.0670 -48.0620 222° Southwest 417 480 33,900 840 Climbing FlightAware
11:32AM -25.1190 -48.1140 222° Southwest 412 474 34,500 900 Climbing FlightAware
11:32AM -25.1880 -48.1830 222° Southwest 409 471 35,200 840 Climbing FlightAware
11:33AM -25.2310 -48.2250 221° Southwest 407 468 35,600 600 Climbing FlightAware
11:34AM -25.3000 -48.2950 223° Southwest 404 465 36,000 240 Climbing FlightAware
11:34AM -25.3480 -48.3430 222° Southwest 402 463 36,000  Level FlightAware
11:35AM -25.4170 -48.4110 222° Southwest 407 468 36,000  Level FlightAware
11:36AM -25.4740 -48.4690 223° Southwest 408 470 36,000  Level FlightAware
11:37AM -25.5480 -48.5420 222° Southwest 409 471 36,000  Level FlightAware
11:38AM -25.6230 -48.6080 218° Southwest 409 471 36,000  Level FlightAware
11:38AM -25.6910 -48.6680 218° Southwest 406 467 36,000  Level FlightAware
11:39AM -25.7550 -48.7250 219° Southwest 403 464 36,000  Level FlightAware
11:40AM -25.8160 -48.7800 219° Southwest 401 461 36,000  Level FlightAware
11:40AM -25.8740 -48.8310 218° Southwest 400 460 36,000  Level FlightAware
11:41AM -25.9410 -48.8900 218° Southwest 400 460 36,000  Level FlightAware
11:42AM -25.9950 -48.9380 219° Southwest 401 461 36,000  Level FlightAware
11:42AM -26.0550 -48.9930 219° Southwest 402 463 36,000  Level FlightAware
11:43AM -26.1070 -49.0390 218° Southwest 403 464 36,000  Level FlightAware
11:45AM -26.2730 -49.1890 219° Southwest 402 463 36,000  Level FlightAware
11:46AM -26.3450 -49.2540 219° Southwest 403 464 36,000  Level FlightAware
11:46AM -26.4010 -49.3040 219° Southwest 405 466 36,000  Level FlightAware
11:47AM -26.4550 -49.3530 219° Southwest 406 467 36,000  Level FlightAware
11:48AM -26.5210 -49.4130 219° Southwest 406 467 36,000  Level FlightAware
11:48AM -26.5780 -49.4650 219° Southwest 405 466 36,000  Level FlightAware
11:49AM -26.6470 -49.5270 219° Southwest 403 464 36,000  Level FlightAware
11:50AM -26.7050 -49.5800 219° Southwest 411 473 36,000  Level FlightAware
11:51AM -26.7660 -49.6360 219° Southwest 417 480 36,000  Level FlightAware
11:51AM -26.8340 -49.6980 219° Southwest 420 483 36,000  Level FlightAware
11:52AM -26.8950 -49.7530 219° Southwest 424 488 36,000  Level FlightAware
11:55AM -27.0860 -49.9465 222° Southwest  Level Estimated
11:55AM -27.2070 -50.0390 222° Southwest 434 499 36,000  Level FlightAware
11:56AM -27.2640 -50.0910 219° Southwest 432 497 36,000  Level FlightAware
11:57AM -27.3290 -50.1520 220° Southwest 431 496 36,000  Level FlightAware
11:57AM -27.3960 -50.2140 219° Southwest 432 497 36,000  Level FlightAware
11:58AM -27.4500 -50.2630 219° Southwest 431 496 36,000  Level FlightAware
11:59AM -27.5320 -50.3400 220° Southwest 433 498 36,000  Level FlightAware
11:59AM -27.5940 -50.3970 219° Southwest 433 498 36,000  Level FlightAware
12:00PM -27.6550 -50.4530 219° Southwest 433 498 36,000  Level FlightAware
12:01PM -27.7240 -50.5180 220° Southwest 433 498 36,000  Level FlightAware
12:02PM -27.7850 -50.5740 219° Southwest 435 501 36,000  Level FlightAware
12:02PM -27.8460 -50.6320 220° Southwest 434 499 36,000  Level FlightAware
12:03PM -27.9040 -50.6870 220° Southwest 435 501 36,000  Level FlightAware
12:04PM -27.9800 -50.7570 219° Southwest 437 503 36,000  Level FlightAware
12:04PM -28.0500 -50.8230 220° Southwest 435 501 36,000  Level FlightAware
12:05PM -28.1100 -50.8800 220° Southwest 436 502 36,000  Level FlightAware
12:06PM -28.1840 -50.9500 220° Southwest 440 506 36,000  Level FlightAware
12:06PM -28.2450 -51.0070 219° Southwest 439 505 36,000  Level FlightAware
12:07PM -28.3080 -51.0660 220° Southwest 438 504 36,000  Level FlightAware
12:08PM -28.3750 -51.1300 220° Southwest 435 501 36,000  Level FlightAware
12:09PM -28.4380 -51.1900 220° Southwest 433 498 36,000  Level FlightAware
12:09PM -28.5080 -51.2570 220° Southwest 433 498 36,000  Level FlightAware
12:10PM -28.5670 -51.3130 220° Southwest 434 499 36,000  Level FlightAware
12:11PM -28.6320 -51.3750 220° Southwest 435 501 36,000  Level FlightAware
12:11PM -28.6990 -51.4390 220° Southwest 432 497 36,000  Level FlightAware
12:12PM -28.7600 -51.4970 220° Southwest 432 497 36,000  Level FlightAware
12:13PM -28.8310 -51.5650 220° Southwest 432 497 36,000  Level FlightAware
12:13PM -28.8890 -51.6210 220° Southwest 432 497 36,000  Level FlightAware
12:14PM -28.9540 -51.6840 220° Southwest 433 498 36,000  Level FlightAware
12:15PM -29.0210 -51.7480 220° Southwest 432 497 36,000  Level FlightAware
12:16PM -29.0820 -51.8070 220° Southwest 431 496 36,000  Level FlightAware
12:16PM -29.1430 -51.8660 220° Southwest 432 497 36,000  Level FlightAware
12:17PM -29.2130 -51.9340 220° Southwest 436 502 36,000  Level FlightAware
12:18PM -29.2750 -51.9930 220° Southwest 439 505 36,000  Level FlightAware
12:18PM -29.3430 -52.0600 221° Southwest 437 503 36,000  Level FlightAware
12:19PM -29.4050 -52.1200 220° Southwest 438 504 36,000  Level FlightAware
12:20PM -29.4670 -52.1800 220° Southwest 440 506 36,000  Level FlightAware
12:20PM -29.5400 -52.2510 220° Southwest 443 510 36,000  Level FlightAware
12:21PM -29.6010 -52.3120 221° Southwest 446 513 36,000  Level FlightAware
12:22PM -29.6700 -52.3790 220° Southwest 446 513 36,000  Level FlightAware
12:23PM -29.7220 -52.4300 220° Southwest 446 513 36,000  Level FlightAware
12:23PM -29.7970 -52.5030 220° Southwest 445 512 36,000  Level FlightAware
12:24PM -29.8560 -52.5620 221° Southwest 442 509 36,000  Level FlightAware
12:25PM -29.9280 -52.6330 221° Southwest 446 513 36,000  Level FlightAware
12:25PM -29.9890 -52.6940 221° Southwest 439 505 36,000  Level FlightAware
12:26PM -30.0520 -52.7560 220° Southwest 439 505 36,000  Level FlightAware
12:27PM -30.1170 -52.8210 221° Southwest 437 503 36,000  Level FlightAware
12:27PM -30.1860 -52.8890 220° Southwest 438 504 36,000  Level FlightAware
12:28PM -30.2520 -52.9540 220° Southwest 439 505 36,000  Level FlightAware
12:29PM -30.3140 -53.0160 221° Southwest 436 502 36,000  Level FlightAware
12:29PM -30.3740 -53.0770 221° Southwest 438 504 36,000  Level FlightAware
12:30PM -30.4430 -53.1460 221° Southwest 436 502 36,000  Level FlightAware
12:31PM -30.5040 -53.2070 221° Southwest 430 495 36,000  Level FlightAware
12:32PM -30.5690 -53.2720 221° Southwest 431 496 36,000  Level FlightAware
12:32PM -30.6320 -53.3360 221° Southwest 428 493 36,000  Level FlightAware
12:33PM -30.6990 -53.4040 221° Southwest 428 493 36,000  Level FlightAware
12:34PM -30.7600 -53.4650 221° Southwest 428 493 36,000  Level FlightAware
12:34PM -30.8150 -53.5210 221° Southwest 427 491 36,000  Level FlightAware
12:35PM -30.8860 -53.5920 221° Southwest 428 493 36,000  Level FlightAware
12:36PM -30.9450 -53.6520 221° Southwest 430 495 36,000  Level FlightAware
12:37PM -31.0130 -53.7220 221° Southwest 430 495 36,000  Level FlightAware
12:37PM -31.0680 -53.7780 221° Southwest 430 495 36,000  Level FlightAware
12:38PM -31.1310 -53.8420 221° Southwest 428 493 36,000  Level FlightAware
12:39PM -31.2000 -53.9130 221° Southwest 430 495 36,000  Level FlightAware
12:40PM -31.2760 -53.9910 221° Southwest 432 497 36,000  Level FlightAware
12:40PM -31.3400 -54.0560 221° Southwest 420 483 36,000  Level FlightAware
12:41PM -31.4050 -54.1250 222° Southwest 422 486 36,000  Level FlightAware
12:42PM -31.4700 -54.2030 226° Southwest 418 481 36,000  Level FlightAware
12:42PM -31.5240 -54.2700 227° Southwest 393 452 36,000  Level FlightAware
12:43PM -31.5730 -54.3300 226° Southwest 393 452 36,000  Level FlightAware
12:44PM -31.6160 -54.3820 226° Southwest 393 452 36,000  Level FlightAware
12:45PM -31.6700 -54.4480 226° Southwest 393 452 36,000  Level FlightAware
12:45PM -31.7130 -54.5000 226° Southwest 393 452 36,000  Level FlightAware
12:46PM -31.7560 -54.5520 226° Southwest 393 452 36,000  Level FlightAware
12:47PM -31.7990 -54.6050 226° Southwest 393 452 36,000  Level FlightAware
12:47PM -31.8410 -54.6570 226° Southwest 393 452 36,000  Level FlightAware
12:48PM -31.8950 -54.7220 226° Southwest 393 452 36,000  Level FlightAware
12:49PM -31.9380 -54.7750 226° Southwest 393 452 36,000  Level FlightAware
12:50PM -31.9810 -54.8270 226° Southwest 393 452 36,000 60 Level FlightAware
12:51PM -32.0960 -55.0430 238° Southwest 402 463 36,100 60 Climbing FlightAware
12:51PM -32.1360 -55.1010 231° Southwest 402 463 36,100  Level FlightAware
12:52PM -32.1760 -55.1590 231° Southwest 402 463 36,100  Level FlightAware
12:53PM -32.2160 -55.2170 231° Southwest 402 463 36,100 -60 Level FlightAware
12:53PM -32.0580 -54.9860 51° Northeast 36,000 -60 Descending FlightAware
12:56PM -32.2142 -55.1909 228° Southwest  Level Estimated
12:57PM -32.2774 -55.2742 228° Southwest  Level Estimated
12:57PM -32.5540 -55.7160 228° Southwest 402 463 36,000  Level FlightAware
12:58PM -32.5910 -55.7700 231° Southwest 404 465 36,000  Level FlightAware
12:59PM -32.6610 -55.8740 231° Southwest 406 467 36,000  Level FlightAware
12:59PM -32.7010 -55.9330 231° Southwest 406 467 36,000  Level FlightAware
01:00PM -32.7510 -56.0070 231° Southwest 406 467 36,000  Level FlightAware
01:01PM -32.7910 -56.0660 231° Southwest 406 467 36,000  Level FlightAware
01:01PM -32.8320 -56.1250 230° Southwest 406 467 36,000  Level FlightAware
01:02PM -32.8720 -56.1840 231° Southwest 406 467 36,000  Level FlightAware
01:03PM -32.9600 -56.3240 233° Southwest 405 466 36,000  Level FlightAware
01:04PM -33.0180 -56.3840 221° Southwest 433 498 36,000  Level FlightAware
01:04PM -33.0790 -56.4250 209° Southwest 433 498 36,000  Level FlightAware
01:05PM -33.1370 -56.4670 211° Southwest 433 498 36,000  Level FlightAware
01:06PM -33.2650 -56.4420 171° South 465 535 36,000  Level FlightAware
01:06PM -33.3370 -56.4550 189° South 465 535 36,000  Level FlightAware
01:07PM -33.4740 -56.5240 203° Southwest 405 466 36,000  Level FlightAware
01:08PM -33.5280 -56.5830 222° Southwest 406 467 36,000  Level FlightAware
01:09PM -33.5940 -56.6460 218° Southwest 373 429 36,000  Level FlightAware
01:09PM -33.6280 -56.7060 236° Southwest 364 419 36,000  Level FlightAware
01:10PM -33.6590 -56.7640 237° Southwest 364 419 36,000 -240 Level FlightAware
01:11PM -33.6850 -56.8700 254° West 366 421 35,700 -240 Descending FlightAware
01:12PM -33.7100 -56.9330 244° Southwest 366 421 35,700  Level FlightAware
01:12PM -33.7340 -56.9950 245° Southwest 366 421 35,700 -2,340 Level FlightAware
01:13PM -33.7830 -57.1300 246° West 353 406 31,700 -3,900 Descending FlightAware
01:14PM -33.8130 -57.2100 246° West 347 399 29,200 -2,040 Descending FlightAware
01:15PM -33.8400 -57.2790 245° Southwest 347 399 29,000 -180 Descending FlightAware
01:15PM -33.8630 -57.3390 245° Southwest 347 399 29,000  Level FlightAware
01:16PM -33.8860 -57.3990 245° Southwest 347 399 29,000  Level FlightAware
01:17PM -33.9150 -57.4730 245° Southwest 347 399 29,000  Level FlightAware
01:18PM -33.9380 -57.5330 245° Southwest 347 399 29,000 -5,400 Level FlightAware
01:19PM -33.9850 -57.6740 248° West 325 374 20,500 -5,940 Descending FlightAware
01:19PM -34.0120 -57.7470 246° West 322 371 19,100 -1,440 Descending FlightAware
01:20PM -34.0410 -57.8250 246° West 321 369 18,300 -540 Descending FlightAware
01:21PM -34.0610 -57.8800 246° West 321 369 18,300  Level FlightAware
01:21PM -34.0820 -57.9360 246° West 321 369 18,300  Level FlightAware
01:22PM -34.1070 -58.0060 247° West 321 369 18,300 -4,800 Level FlightAware
01:23PM -34.1610 -58.0980 235° Southwest 341 392 11,100 -6,660 Descending FlightAware
01:24PM -34.1840 -58.1450 239° Southwest 344 396 10,000 -960 Descending FlightAware
01:24PM -34.2050 -58.2030 246° West 344 396 10,000  Level FlightAware
01:25PM -34.2220 -58.2480 245° Southwest 344 396 10,000  Level FlightAware
01:25PM -34.2330 -58.2780 246° West 344 396 10,000  Level FlightAware
01:25PM -34.2490 -58.3220 246° West 344 396 10,000 -4,020 Level FlightAware
01:26PM -34.3210 -58.3750 211° Southwest 284 327 4,700 -4,980 Descending FlightAware
01:27PM -34.3400 -58.4060 233° Southwest 287 330 3,800 -1,200 Descending FlightAware
01:27PM -34.3630 -58.4410 231° Southwest 288 331 3,600 -420 Descending FlightAware
01:30PM -34.5592 -58.4156 174° South  Level Estimated
01:30PM -34.4770 -58.5580 174° South 164 189 2,500  Level FlightAware
01:30PM -34.4950 -58.5300 128° Southeast 167 192 2,100 -840 Descending FlightAware
01:31PM -34.5080 -58.5080 126° Southeast 157 181 1,700 -780 Descending FlightAware
01:31PM -34.5170 -58.4910 123° Southeast 144 166 1,400 -780 Descending FlightAware
01:32PM -34.5290 -58.4710 126° Southeast 137 158 1,000 -840 Descending FlightAware
01:32PM -34.5340 -58.4620 124° Southeast 138 159 800 -780 Descending FlightAware
01:33PM -34.5430 -58.4460 124° Southeast 138 159 500 -420 Descending FlightAware
01:33PM -34.5540 -58.4250 122° Southeast 137 158 400 -180 Descending FlightAware
01:36PM -34.5592 -58.4156 124° Southeast  Level Estimated
01:37PM -34.5592 -58.4156 33° Northeast  Level Estimated
01:38PM -34.5592 -58.4156 147° Southeast  Level Estimated
01:39PM -34.5592 -58.4156 33° Northeast  Level Estimated
01:40PM -34.5592 -58.4156 147° Southeast  Level Estimated
01:41PM -34.5592 -58.4156 33° Northeast  Level Estimated
01:42PM -34.5592 -58.4156 147° Southeast  Level Estimated
01:43PM -34.5592 -58.4156 33° Northeast  Level Estimated
01:44PM -34.5592 -58.4156 147° Southeast  Level Estimated
01:45PM -34.5592 -58.4156 33° Northeast  Level Estimated
01:46PM -34.5592 -58.4156 147° Southeast  Level Estimated
01:47PM -34.5592 -58.4156 33° Northeast  Level Estimated
01:48PM -34.5592 -58.4156 147° Southeast  Level Estimated
01:49PM -34.5592 -58.4156 33° Northeast  Level Estimated
01:50PM -34.5592 -58.4156 147° Southeast  Level Estimated